Apison, Tennessee
Current Conditions -  °F | °C
As of 4:53 PM on Friday 19 Dec 2014 (Local Time) from KCHA Reporting Station
Broken Clouds Broken Clouds  
Wind Chill: 43°   Ceiling: 20000
Heat Index: 46°   Visibility: 10mi
Dew Point: 28°   Wind: 6mph
Humidity: 50%   Direction: 20°NNE
Pressure: 30.16"   Gusts: NA
Location:  35.02°N, 85.02°W
Report Text: KCHA 192153Z 02005KT 10SM SCT050 BKN200 BKN250 08/M02 A3016 RMK AO2 SLP217 T00781022
Loading
Personal Weather Stations






























Interactive Weather Map New forecast layout! Learn more

10-Day Weather Forecast

Advertisements
Track Severe Weather on mobile